createdAt,value
2022-08-09T00:00:00.857Z,60.68
2022-08-09T00:02:33.469Z,60.57
2022-08-09T00:06:16.347Z,61.04
2022-08-09T00:07:54.318Z,61.18
2022-08-09T00:10:24.509Z,61.34
2022-08-09T00:12:53.338Z,61.07
2022-08-09T00:15:35.300Z,61.48
2022-08-09T00:18:12.004Z,61.64
2022-08-09T00:20:42.585Z,62.00
2022-08-09T00:23:57.426Z,61.56
2022-08-09T00:26:08.049Z,61.60
2022-08-09T00:28:36.895Z,61.61
2022-08-09T00:31:30.402Z,61.43
2022-08-09T00:33:54.250Z,61.64
2022-08-09T00:36:29.552Z,61.33
2022-08-09T00:38:59.975Z,61.90
2022-08-09T00:44:10.201Z,61.99
2022-08-09T00:44:25.736Z,62.47
2022-08-09T00:47:04.740Z,63.12
2022-08-09T00:49:33.971Z,63.57
2022-08-09T00:52:05.478Z,63.58
2022-08-09T00:54:36.236Z,63.38
2022-08-09T00:57:08.820Z,63.25
2022-08-09T00:59:41.035Z,62.77
2022-08-09T01:02:10.514Z,63.15
2022-08-09T01:04:48.077Z,63.06
2022-08-09T01:07:21.293Z,63.33
2022-08-09T01:10:18.852Z,63.57
2022-08-09T01:12:52.797Z,63.88
2022-08-09T01:15:25.442Z,64.14
2022-08-09T01:18:00.584Z,64.02
2022-08-09T01:20:41.272Z,64.41
2022-08-09T01:24:03.190Z,65.01
2022-08-09T01:26:52.900Z,65.12
2022-08-09T01:29:41.300Z,65.43
2022-08-09T01:32:29.783Z,65.33
2022-08-09T01:35:18.236Z,64.99
2022-08-09T01:38:07.871Z,64.63
2022-08-09T01:40:43.840Z,64.75
2022-08-09T01:43:13.412Z,64.70
2022-08-09T01:45:46.419Z,64.91
2022-08-09T01:48:17.385Z,65.67
2022-08-09T01:50:49.127Z,65.86
2022-08-09T01:53:29.028Z,66.05
2022-08-09T01:55:58.458Z,65.92
2022-08-09T01:58:32.119Z,66.11
2022-08-09T02:01:02.982Z,65.99
2022-08-09T02:03:34.854Z,66.47
2022-08-09T02:06:07.270Z,66.31
2022-08-09T02:08:58.475Z,66.00
2022-08-09T02:11:42.579Z,66.48
2022-08-09T02:14:26.578Z,66.78
2022-08-09T02:16:59.755Z,67.27
2022-08-09T02:19:44.605Z,67.48
2022-08-09T02:22:27.354Z,67.38
2022-08-09T02:25:06.759Z,67.02
2022-08-09T02:27:57.457Z,67.20
2022-08-09T02:30:30.427Z,67.59
2022-08-09T02:33:01.112Z,68.36
2022-08-09T02:36:01.235Z,68.30
2022-08-09T02:38:29.783Z,68.41
2022-08-09T02:41:03.182Z,69.38
2022-08-09T02:43:53.936Z,69.68
2022-08-09T02:46:25.500Z,69.79
2022-08-09T02:48:57.697Z,69.87
2022-08-09T02:51:27.227Z,70.22
2022-08-09T02:54:00.899Z,70.53
2022-08-09T02:56:31.625Z,70.35
2022-08-09T02:59:02.550Z,70.35
2022-08-09T03:01:43.305Z,70.41
2022-08-09T03:04:28.950Z,70.46
2022-08-09T03:06:59.833Z,70.55
2022-08-09T03:09:42.837Z,70.77
2022-08-09T03:12:13.569Z,71.33
2022-08-09T03:14:43.985Z,71.58
2022-08-09T03:17:20.597Z,71.50
2022-08-09T03:20:03.675Z,71.35
2022-08-09T03:22:41.481Z,71.16
2022-08-09T03:25:26.475Z,71.65
2022-08-09T03:28:00.928Z,72.32
2022-08-09T03:30:34.072Z,72.49
2022-08-09T03:33:17.673Z,72.94
2022-08-09T03:36:13.234Z,72.87
2022-08-09T03:38:37.149Z,73.14
2022-08-09T03:41:09.368Z,72.74
2022-08-09T03:43:37.318Z,72.54
2022-08-09T03:46:20.132Z,72.31
2022-08-09T03:48:58.393Z,72.24
2022-08-09T03:51:57.589Z,72.15
2022-08-09T03:54:16.290Z,72.54
2022-08-09T03:56:46.623Z,72.58
2022-08-09T03:59:20.790Z,72.77
2022-08-09T04:01:50.374Z,73.17
2022-08-09T04:04:20.452Z,73.27
2022-08-09T04:06:52.424Z,72.96
2022-08-09T04:09:48.004Z,73.28
2022-08-09T04:12:34.684Z,73.27
2022-08-09T04:15:17.062Z,73.67
2022-08-09T04:17:51.042Z,74.41
2022-08-09T04:20:21.066Z,74.22
2022-08-09T04:22:51.202Z,74.17
2022-08-09T04:25:19.067Z,74.01
2022-08-09T04:27:49.041Z,74.54
2022-08-09T04:30:20.928Z,74.91
2022-08-09T04:32:51.947Z,75.24
2022-08-09T04:35:21.680Z,75.02
2022-08-09T04:37:50.208Z,74.61
2022-08-09T04:40:28.884Z,74.22
2022-08-09T04:43:05.591Z,74.87
2022-08-09T04:45:36.060Z,74.87
2022-08-09T04:48:21.120Z,74.67
2022-08-09T04:50:52.891Z,74.44
2022-08-09T04:53:20.642Z,74.12
2022-08-09T04:55:58.100Z,74.00
2022-08-09T04:58:27.755Z,74.51
2022-08-09T05:00:55.725Z,75.25
2022-08-09T05:03:42.706Z,75.02
2022-08-09T05:06:25.759Z,75.17
2022-08-09T05:09:00.787Z,75.16
2022-08-09T05:11:32.163Z,75.58
2022-08-09T05:14:06.245Z,75.28
2022-08-09T05:16:43.527Z,75.17
2022-08-09T05:19:14.944Z,75.14
2022-08-09T05:21:47.310Z,74.82
2022-08-09T05:24:23.136Z,74.70
2022-08-09T05:26:52.140Z,74.50
2022-08-09T05:29:22.194Z,74.50
2022-08-09T05:31:57.414Z,74.07
2022-08-09T05:34:31.315Z,73.88
2022-08-09T05:37:05.231Z,73.78
2022-08-09T05:39:35.745Z,73.64
2022-08-09T05:42:07.628Z,73.57
2022-08-09T05:44:36.654Z,73.46
2022-08-09T05:47:06.126Z,73.19
2022-08-09T05:50:25.210Z,73.16
2022-08-09T05:52:24.721Z,73.34
2022-08-09T05:54:52.914Z,73.30
2022-08-09T05:57:25.136Z,73.32
2022-08-09T06:00:13.110Z,73.12
2022-08-09T06:02:42.335Z,72.93
2022-08-09T06:05:14.470Z,72.46
2022-08-09T06:08:05.044Z,72.46
2022-08-09T06:10:39.222Z,72.47
2022-08-09T06:13:12.385Z,72.94
2022-08-09T06:15:46.797Z,72.72
2022-08-09T06:18:15.814Z,72.35
2022-08-09T06:20:54.264Z,72.10
2022-08-09T06:23:24.607Z,71.88
2022-08-09T06:26:12.373Z,71.66
2022-08-09T06:28:43.415Z,70.90
2022-08-09T06:31:11.642Z,71.15
2022-08-09T06:33:40.548Z,70.33
2022-08-09T06:36:11.911Z,70.75
2022-08-09T06:38:49.835Z,71.21
2022-08-09T06:41:20.432Z,70.86
2022-08-09T06:43:48.838Z,70.61
2022-08-09T06:46:39.705Z,70.63
2022-08-09T06:49:04.888Z,69.92
2022-08-09T06:51:33.699Z,69.95
2022-08-09T06:54:12.528Z,70.12
2022-08-09T06:56:45.626Z,70.05
2022-08-09T07:00:52.109Z,69.45
2022-08-09T07:02:04.494Z,69.22
2022-08-09T07:04:33.002Z,68.45
2022-08-09T07:07:04.697Z,67.99
2022-08-09T07:09:55.598Z,68.09
2022-08-09T07:12:23.004Z,67.64
2022-08-09T07:16:35.059Z,67.57
2022-08-09T07:17:56.421Z,66.74
2022-08-09T07:20:30.548Z,67.12
2022-08-09T07:22:59.327Z,66.67
2022-08-09T07:25:29.238Z,66.78
2022-08-09T07:27:56.986Z,66.65
2022-08-09T07:30:26.441Z,66.69
2022-08-09T07:33:00.627Z,66.42
2022-08-09T07:35:28.956Z,66.28
2022-08-09T07:38:07.383Z,65.73
2022-08-09T07:40:54.074Z,65.96
2022-08-09T07:43:29.042Z,64.97
2022-08-09T07:45:56.923Z,64.80
2022-08-09T07:48:31.632Z,64.34
2022-08-09T07:51:09.686Z,63.83
2022-08-09T07:54:04.897Z,64.12
2022-08-09T07:56:44.647Z,64.08
2022-08-09T07:59:34.030Z,63.71
2022-08-09T08:02:04.992Z,63.75
2022-08-09T08:04:33.346Z,63.33
2022-08-09T08:07:27.116Z,62.95
2022-08-09T08:09:55.272Z,62.52
2022-08-09T08:12:43.730Z,62.22
2022-08-09T08:15:14.310Z,62.20
2022-08-09T08:17:53.778Z,60.93
2022-08-09T08:20:29.054Z,60.53
2022-08-09T08:23:03.480Z,60.69
2022-08-09T08:25:44.146Z,60.08
2022-08-09T08:28:15.516Z,60.43
2022-08-09T08:30:47.551Z,60.02
2022-08-09T08:33:24.051Z,59.92
2022-08-09T08:35:59.031Z,58.80
2022-08-09T08:38:28.639Z,58.23
2022-08-09T08:40:57.233Z,58.10
2022-08-09T08:43:27.650Z,57.67
2022-08-09T08:46:03.985Z,58.17
2022-08-09T08:48:51.505Z,57.27
2022-08-09T08:51:22.600Z,56.68
2022-08-09T08:54:03.206Z,57.09
2022-08-09T08:56:35.195Z,56.54
2022-08-09T08:59:19.687Z,55.50
2022-08-09T09:01:52.058Z,54.94
2022-08-09T09:04:26.952Z,55.33
2022-08-09T09:06:58.409Z,55.33
2022-08-09T09:09:58.417Z,54.48
2022-08-09T09:12:17.121Z,54.37
2022-08-09T09:14:47.724Z,53.39
2022-08-09T09:17:16.622Z,52.20
2022-08-09T09:19:44.929Z,51.53
2022-08-09T09:22:15.851Z,52.88
2022-08-09T09:24:46.337Z,51.83
2022-08-09T09:28:02.804Z,50.54
2022-08-09T09:30:39.752Z,50.07
2022-08-09T09:33:16.525Z,50.42
2022-08-09T09:36:02.653Z,49.98
2022-08-09T09:38:45.543Z,49.67
2022-08-09T09:41:27.852Z,48.45
2022-08-09T09:44:12.821Z,48.86
2022-08-09T09:46:52.148Z,48.90
2022-08-09T09:49:31.887Z,47.82
2022-08-09T09:52:35.858Z,48.19
2022-08-09T09:55:16.027Z,46.66
2022-08-09T09:58:04.268Z,46.98
2022-08-09T10:00:54.266Z,47.56
2022-08-09T10:03:56.342Z,46.35
2022-08-09T10:06:26.732Z,46.51
2022-08-09T10:09:02.865Z,47.05
2022-08-09T10:12:07.805Z,46.06
2022-08-09T10:14:27.417Z,46.46
2022-08-09T10:17:24.113Z,46.15
2022-08-09T10:19:53.109Z,44.88
2022-08-09T10:22:33.303Z,45.36
2022-08-09T10:25:07.034Z,45.71
2022-08-09T10:27:56.309Z,45.03
2022-08-09T10:32:15.245Z,44.88
2022-08-09T10:34:04.538Z,44.90
2022-08-09T10:36:04.778Z,45.00
2022-08-09T10:38:54.946Z,44.11
2022-08-09T10:41:21.026Z,44.07
2022-08-09T10:43:59.957Z,44.13
2022-08-09T10:47:01.027Z,43.60
2022-08-09T10:49:50.459Z,43.85
2022-08-09T10:52:42.604Z,43.93
2022-08-09T10:55:26.478Z,43.17
2022-08-09T10:57:59.892Z,43.13
2022-08-09T11:00:37.477Z,43.04
2022-08-09T11:03:46.801Z,42.89
2022-08-09T11:06:22.869Z,43.30
2022-08-09T11:08:53.476Z,42.33
2022-08-09T11:11:23.428Z,42.15
2022-08-09T11:14:28.142Z,41.50
2022-08-09T11:16:56.832Z,41.52
2022-08-09T11:20:11.506Z,41.34
2022-08-09T11:23:07.218Z,41.96
2022-08-09T11:25:47.906Z,42.40
2022-08-09T11:28:38.792Z,42.62
2022-08-09T11:31:50.248Z,42.01
2022-08-09T11:34:29.672Z,42.06
2022-08-09T11:37:00.448Z,41.46
2022-08-09T11:39:37.791Z,40.89
2022-08-09T11:42:14.938Z,40.90
2022-08-09T11:44:48.281Z,41.20
2022-08-09T11:47:16.604Z,40.36
2022-08-09T11:50:54.109Z,40.08
2022-08-09T11:53:58.409Z,41.18
2022-08-09T11:56:41.904Z,40.45
2022-08-09T11:59:29.842Z,39.69
2022-08-09T12:02:18.382Z,40.50
2022-08-09T12:04:58.102Z,40.52
2022-08-09T12:07:41.269Z,41.00
2022-08-09T12:10:37.988Z,40.24
2022-08-09T12:13:00.291Z,40.04
2022-08-09T12:15:48.700Z,39.66
2022-08-09T12:18:30.089Z,40.10
2022-08-09T12:21:00.522Z,39.34
2022-08-09T12:23:56.141Z,39.75
2022-08-09T12:26:19.550Z,40.10
2022-08-09T12:28:59.795Z,39.85
2022-08-09T12:32:02.539Z,40.25
2022-08-09T12:34:35.067Z,39.67
2022-08-09T12:37:21.765Z,39.27
2022-08-09T12:40:06.776Z,38.84
2022-08-09T12:42:35.502Z,39.12
2022-08-09T12:45:32.586Z,38.97
2022-08-09T12:47:54.486Z,38.22
2022-08-09T12:50:23.642Z,38.65
2022-08-09T12:53:09.686Z,38.08
2022-08-09T12:56:15.819Z,37.95
2022-08-09T12:58:28.833Z,37.81
2022-08-09T13:00:58.199Z,38.45
2022-08-09T13:03:58.418Z,38.81
2022-08-09T13:06:34.007Z,37.82
2022-08-09T13:09:07.233Z,38.58
2022-08-09T13:11:39.093Z,38.40
2022-08-09T13:14:40.733Z,38.49
2022-08-09T13:17:01.023Z,38.47
2022-08-09T13:20:09.520Z,38.13
2022-08-09T13:23:00.204Z,38.55
2022-08-09T13:25:12.147Z,38.06
2022-08-09T13:27:48.330Z,38.49
2022-08-09T13:31:11.493Z,38.49
2022-08-09T13:33:16.919Z,38.09
2022-08-09T13:36:37.466Z,37.76
2022-08-09T13:38:58.024Z,37.58
2022-08-09T13:41:57.940Z,38.25
2022-08-09T13:44:17.102Z,38.30
2022-08-09T13:47:17.762Z,37.40
2022-08-09T13:49:37.581Z,37.68
2022-08-09T13:52:09.155Z,36.50
2022-08-09T13:54:42.920Z,36.64
2022-08-09T13:57:36.269Z,36.67
2022-08-09T14:00:06.554Z,36.44
2022-08-09T14:02:36.406Z,36.75
2022-08-09T14:05:13.500Z,36.73
2022-08-09T14:08:04.434Z,36.54
2022-08-09T14:10:46.194Z,36.95
2022-08-09T14:13:28.283Z,36.57
2022-08-09T14:16:10.256Z,36.75
2022-08-09T14:18:39.102Z,36.13
2022-08-09T14:21:17.592Z,36.79
2022-08-09T14:23:53.664Z,36.79
2022-08-09T14:26:25.186Z,36.36
2022-08-09T14:28:53.410Z,35.73
2022-08-09T14:31:23.678Z,35.91
2022-08-09T14:34:09.241Z,35.95
2022-08-09T14:36:39.763Z,36.43
2022-08-09T14:39:12.378Z,36.07
2022-08-09T14:41:41.905Z,35.46
2022-08-09T14:44:11.402Z,36.34
2022-08-09T14:47:03.175Z,35.91
2022-08-09T14:49:34.549Z,35.76
2022-08-09T14:52:08.109Z,35.96
2022-08-09T14:54:37.326Z,36.24
2022-08-09T14:57:07.945Z,35.75
2022-08-09T14:59:38.673Z,36.11
2022-08-09T15:02:07.470Z,36.47
2022-08-09T15:04:36.791Z,35.42
2022-08-09T15:07:04.800Z,35.60
2022-08-09T15:10:07.569Z,35.50
2022-08-09T15:12:30.475Z,35.40
2022-08-09T15:14:58.217Z,35.68
2022-08-09T15:17:26.417Z,35.54
2022-08-09T15:19:59.748Z,36.37
2022-08-09T15:22:30.382Z,35.65
2022-08-09T15:25:03.832Z,35.85
2022-08-09T15:27:47.680Z,36.16
2022-08-09T15:30:59.980Z,35.91
2022-08-09T15:33:07.667Z,35.43
2022-08-09T15:35:40.805Z,35.24
2022-08-09T15:38:13.000Z,35.61
2022-08-09T15:40:44.242Z,35.04
2022-08-09T15:43:13.687Z,35.45
2022-08-09T15:45:51.743Z,35.58
2022-08-09T15:48:31.769Z,35.15
2022-08-09T15:51:00.362Z,35.09
2022-08-09T15:54:04.581Z,35.07
2022-08-09T15:56:29.241Z,35.14
2022-08-09T15:58:59.490Z,34.95
2022-08-09T16:01:27.328Z,35.21
2022-08-09T16:03:59.395Z,35.14
2022-08-09T16:06:35.174Z,35.31
2022-08-09T16:09:06.501Z,34.46
2022-08-09T16:11:36.745Z,35.27
2022-08-09T16:14:08.017Z,34.91
2022-08-09T16:16:38.004Z,35.36
2022-08-09T16:19:07.752Z,35.83
2022-08-09T16:21:35.804Z,35.19
2022-08-09T16:24:04.815Z,35.24
2022-08-09T16:26:35.041Z,35.29
2022-08-09T16:29:12.046Z,35.77
2022-08-09T16:32:19.328Z,35.10
2022-08-09T16:34:29.772Z,35.35
2022-08-09T16:37:17.540Z,34.77
2022-08-09T16:39:54.483Z,34.48
2022-08-09T16:42:33.008Z,34.95
2022-08-09T16:45:02.096Z,35.33
2022-08-09T16:48:39.114Z,35.07
2022-08-09T16:50:29.818Z,34.77
2022-08-09T16:53:00.838Z,34.80
2022-08-09T16:55:44.442Z,34.86
2022-08-09T16:58:16.929Z,35.04
2022-08-09T17:00:46.626Z,35.48
2022-08-09T17:03:21.508Z,35.22
2022-08-09T17:06:07.320Z,35.50
2022-08-09T17:08:44.476Z,35.85
2022-08-09T17:11:41.138Z,35.69
2022-08-09T17:14:25.995Z,36.22
2022-08-09T17:16:59.714Z,36.16
2022-08-09T17:20:05.044Z,35.49
2022-08-09T17:22:24.116Z,35.83
2022-08-09T17:25:03.622Z,35.82
2022-08-09T17:27:32.159Z,36.00
2022-08-09T17:29:59.980Z,35.95
2022-08-09T17:32:38.042Z,36.25
2022-08-09T17:35:12.280Z,35.98
2022-08-09T17:38:14.445Z,36.28
2022-08-09T17:40:29.637Z,36.26
2022-08-09T17:42:59.201Z,36.71
2022-08-09T17:46:02.005Z,36.35
2022-08-09T17:48:28.434Z,36.58
2022-08-09T17:51:06.606Z,36.40
2022-08-09T17:53:42.967Z,36.52
2022-08-09T17:56:11.398Z,36.88
2022-08-09T17:58:42.941Z,37.14
2022-08-09T18:01:15.416Z,36.75
2022-08-09T18:03:52.591Z,36.57
2022-08-09T18:06:32.069Z,36.96
2022-08-09T18:09:03.398Z,37.26
2022-08-09T18:12:05.410Z,36.91
2022-08-09T18:14:22.134Z,37.16
2022-08-09T18:16:50.056Z,37.37
2022-08-09T18:21:01.228Z,36.92
2022-08-09T18:22:16.666Z,37.39
2022-08-09T18:24:45.749Z,37.39
2022-08-09T18:27:33.662Z,37.49
2022-08-09T18:30:36.362Z,37.79
2022-08-09T18:32:54.462Z,38.05
2022-08-09T18:36:00.031Z,38.07
2022-08-09T18:38:13.074Z,38.15
2022-08-09T18:40:41.084Z,38.25
2022-08-09T18:43:08.906Z,38.17
2022-08-09T18:46:46.546Z,38.43
2022-08-09T18:48:25.525Z,38.47
2022-08-09T18:50:59.896Z,38.48
2022-08-09T18:53:31.489Z,38.72
2022-08-09T18:56:17.622Z,38.65
2022-08-09T18:58:47.930Z,38.87
2022-08-09T19:01:23.117Z,38.86
2022-08-09T19:03:54.638Z,39.07
2022-08-09T19:06:30.288Z,38.95
2022-08-09T19:09:02.689Z,39.08
2022-08-09T19:11:37.983Z,39.30
2022-08-09T19:14:06.648Z,39.38
2022-08-09T19:16:36.278Z,39.60
2022-08-09T19:19:25.080Z,39.78
2022-08-09T19:22:06.713Z,39.85
2022-08-09T19:24:39.669Z,39.84
2022-08-09T19:27:23.044Z,40.12
2022-08-09T19:30:24.591Z,40.37
2022-08-09T19:32:41.539Z,40.50
2022-08-09T19:35:09.929Z,40.34
2022-08-09T19:37:54.418Z,40.66
2022-08-09T19:40:33.113Z,40.76
2022-08-09T19:43:01.910Z,40.85
2022-08-09T19:45:40.422Z,40.77
2022-08-09T19:48:11.047Z,40.80
2022-08-09T19:50:51.551Z,40.88
2022-08-09T19:53:26.480Z,41.11
2022-08-09T19:56:03.205Z,41.10
2022-08-09T19:58:34.911Z,41.09
2022-08-09T20:01:04.011Z,41.29
2022-08-09T20:04:17.954Z,41.24
2022-08-09T20:06:23.300Z,41.44
2022-08-09T20:08:56.912Z,41.59
2022-08-09T20:11:25.798Z,41.26
2022-08-09T20:13:54.818Z,41.87
2022-08-09T20:16:33.117Z,41.97
2022-08-09T20:19:46.455Z,42.05
2022-08-09T20:21:57.562Z,42.34
2022-08-09T20:24:33.694Z,42.19
2022-08-09T20:27:07.841Z,41.96
2022-08-09T20:29:37.940Z,42.19
2022-08-09T20:32:31.132Z,42.70
2022-08-09T20:34:55.005Z,42.57
2022-08-09T20:37:22.950Z,42.60
2022-08-09T20:40:15.691Z,42.70
2022-08-09T20:42:40.292Z,42.96
2022-08-09T20:45:59.895Z,43.06
2022-08-09T20:48:10.961Z,43.23
2022-08-09T20:50:47.036Z,43.36
2022-08-09T20:53:22.788Z,43.32
2022-08-09T20:56:06.358Z,43.64
2022-08-09T20:58:37.993Z,43.32
2022-08-09T21:01:32.777Z,43.93
2022-08-09T21:05:49.070Z,43.61
2022-08-09T21:06:45.520Z,43.93
2022-08-09T21:09:14.403Z,44.26
2022-08-09T21:14:36.975Z,44.52
2022-08-09T21:18:24.130Z,44.63
2022-08-09T21:20:14.550Z,44.92
2022-08-09T21:22:47.054Z,45.02
2022-08-09T21:25:38.542Z,45.07
2022-08-09T21:28:11.861Z,45.15
2022-08-09T21:30:40.765Z,45.05
2022-08-09T21:33:08.781Z,45.05
2022-08-09T21:35:39.347Z,45.67
2022-08-09T21:38:21.036Z,45.70
2022-08-09T21:40:59.081Z,45.72
2022-08-09T21:43:56.167Z,45.85
2022-08-09T21:46:16.342Z,45.91
2022-08-09T21:48:48.359Z,45.89
2022-08-09T21:51:24.223Z,46.22
2022-08-09T21:54:03.941Z,46.69
2022-08-09T21:56:42.786Z,46.45
2022-08-09T21:59:20.870Z,46.66
2022-08-09T22:01:59.220Z,47.01
2022-08-09T22:04:55.015Z,47.25
2022-08-09T22:07:35.176Z,47.26
2022-08-09T22:10:06.509Z,46.97
2022-08-09T22:12:35.103Z,47.14
2022-08-09T22:15:16.491Z,47.38
2022-08-09T22:17:46.554Z,47.45
2022-08-09T22:20:21.669Z,47.82
2022-08-09T22:22:55.128Z,47.85
2022-08-09T22:26:07.414Z,48.03
2022-08-09T22:28:11.438Z,48.25
2022-08-09T22:30:48.590Z,48.59
2022-08-09T22:33:17.189Z,48.47
2022-08-09T22:36:00.876Z,48.41
2022-08-09T22:38:30.603Z,48.90
2022-08-09T22:40:59.268Z,48.86
2022-08-09T22:44:03.275Z,49.01
2022-08-09T22:48:16.603Z,49.09
2022-08-09T22:49:09.632Z,49.29
2022-08-09T22:51:38.393Z,49.51
2022-08-09T22:54:10.882Z,49.75
2022-08-09T22:56:41.624Z,49.67
2022-08-09T22:59:58.289Z,49.84
2022-08-09T23:01:59.260Z,49.87
2022-08-09T23:04:27.035Z,50.01
2022-08-09T23:07:17.780Z,50.34
2022-08-09T23:10:06.316Z,50.91
2022-08-09T23:12:34.129Z,50.78
2022-08-09T23:15:01.915Z,50.74
2022-08-09T23:17:31.218Z,50.82
2022-08-09T23:20:06.790Z,50.66
2022-08-09T23:22:36.051Z,51.20
2022-08-09T23:25:04.088Z,51.33
2022-08-09T23:27:32.051Z,51.71
2022-08-09T23:29:59.976Z,51.54
2022-08-09T23:32:27.712Z,51.57
2022-08-09T23:34:56.896Z,51.81
2022-08-09T23:37:25.505Z,51.78
2022-08-09T23:39:53.604Z,51.89
2022-08-09T23:42:21.368Z,52.15
2022-08-09T23:44:49.113Z,52.23
2022-08-09T23:47:17.021Z,52.68
2022-08-09T23:49:44.762Z,52.63
2022-08-09T23:52:13.923Z,52.92
2022-08-09T23:54:45.351Z,53.30
2022-08-09T23:57:13.471Z,53.50
